Time;durP1;ratioP1;P1;durP2;ratioP2;P2;SDS_P1;SDS_P2;PMS_P1;PMS_P2;Temp;Humidity;BMP_temperature;BMP_pressure;BME280_temperature;BME280_humidity;BME280_pressure;Samples;Min_cycle;Max_cycle;Signal;HPM_P1;HPM_P2
2023/10/14 00:01:40;;;;;;;2.90;1.05;;;14.10;99.90;;;;;;5051618;28;20043;-58
2023/10/14 00:04:09;;;;;;;8.15;1.30;;;13.90;99.90;;;;;;5067440;28;20036;-58
2023/10/14 00:06:38;;;;;;;7.90;1.30;;;13.80;99.90;;;;;;5066723;28;20094;-58
2023/10/14 00:09:13;;;;;;;7.45;1.40;;;14.50;99.90;;;;;;5070260;28;20041;-58
2023/10/14 00:11:54;;;;;;;7.97;1.35;;;13.80;99.90;;;;;;5086637;28;20032;-58
2023/10/14 00:14:22;;;;;;;10.02;1.58;;;14.10;99.90;;;;;;5089802;28;20104;-57
2023/10/14 00:16:51;;;;;;;11.25;1.63;;;13.70;99.90;;;;;;5071831;28;20036;-58
2023/10/14 00:19:23;;;;;;;8.80;1.33;;;13.80;99.90;;;;;;5064616;28;20075;-57
2023/10/14 00:21:50;;;;;;;7.47;1.00;;;13.90;99.90;;;;;;5051851;28;20070;-58
2023/10/14 00:24:25;;;;;;;7.72;1.50;;;13.30;99.90;;;;;;5069759;28;20067;-57
2023/10/14 00:26:55;;;;;;;12.43;1.90;;;13.40;99.90;;;;;;5069625;28;20042;-58
2023/10/14 00:29:20;;;;;;;9.80;1.80;;;13.50;99.90;;;;;;5035810;28;20041;-57
2023/10/14 00:31:48;;;;;;;12.40;2.03;;;13.20;99.90;;;;;;5069652;28;20395;-56
2023/10/14 00:34:14;;;;;;;10.50;1.73;;;13.20;99.90;;;;;;5070114;28;20029;-58
2023/10/14 00:36:40;;;;;;;8.48;1.90;;;13.30;99.90;;;;;;5072947;28;20040;-57
2023/10/14 00:39:12;;;;;;;7.00;1.27;;;13.20;99.90;;;;;;5069638;28;20039;-57
2023/10/14 00:41:42;;;;;;;5.53;1.10;;;13.20;99.90;;;;;;5067427;28;20167;-57
2023/10/14 00:44:09;;;;;;;10.95;1.98;;;13.10;99.90;;;;;;5069066;28;20086;-57
2023/10/14 00:46:36;;;;;;;13.30;2.13;;;12.80;99.90;;;;;;5073522;28;20044;-57
2023/10/14 00:49:04;;;;;;;10.10;1.77;;;12.90;99.90;;;;;;5031658;28;20107;-57
2023/10/14 00:51:34;;;;;;;11.55;2.55;;;13.20;99.90;;;;;;5016801;28;20052;-58
2023/10/14 00:54:04;;;;;;;12.75;2.22;;;13.00;99.90;;;;;;5025084;28;20095;-57
2023/10/14 00:56:31;;;;;;;10.68;2.20;;;13.00;99.90;;;;;;5041482;28;20045;-57
2023/10/14 00:58:59;;;;;;;10.90;2.05;;;13.10;99.90;;;;;;5033051;28;20048;-56
2023/10/14 01:01:28;;;;;;;9.95;1.38;;;12.90;99.90;;;;;;5037436;28;20448;-57
2023/10/14 01:04:17;;;;;;;12.40;2.15;;;12.70;99.90;;;;;;5034460;28;20037;-57
2023/10/14 01:06:55;;;;;;;11.93;2.05;;;12.60;99.90;;;;;;5036816;28;20088;-57
2023/10/14 01:09:27;;;;;;;12.93;2.10;;;12.90;99.90;;;;;;5052663;28;20179;-57
2023/10/14 01:11:55;;;;;;;14.32;2.83;;;12.80;99.90;;;;;;5052896;28;20037;-58
2023/10/14 01:14:23;;;;;;;16.02;2.78;;;12.40;99.90;;;;;;5049609;28;20771;-58
2023/10/14 01:16:49;;;;;;;11.63;2.45;;;12.90;99.90;;;;;;5034408;28;20041;-57
2023/10/14 01:19:20;;;;;;;13.00;1.50;;;12.40;99.90;;;;;;5033213;28;20034;-58
2023/10/14 01:21:50;;;;;;;13.15;2.55;;;12.80;99.90;;;;;;5033958;28;20555;-57
2023/10/14 01:24:16;;;;;;;11.38;2.20;;;12.80;99.90;;;;;;5051133;28;20040;-58
2023/10/14 01:27:04;;;;;;;12.73;2.10;;;12.40;99.90;;;;;;5034688;28;20057;-57
2023/10/14 01:29:31;;;;;;;13.23;2.55;;;12.70;99.90;;;;;;5034225;28;20040;-57
2023/10/14 01:32:41;;;;;;;13.15;2.63;;;12.60;99.90;;;;;;5052416;28;20132;-58
2023/10/14 01:35:25;;;;;;;13.93;2.55;;;12.30;99.90;;;;;;5052114;28;20518;-56
2023/10/14 01:37:58;;;;;;;10.20;1.30;;;12.40;99.90;;;;;;5051743;28;20033;-58
2023/10/14 01:40:36;;;;;;;11.13;2.58;;;12.10;99.90;;;;;;5052581;28;20400;-57
2023/10/14 01:43:06;;;;;;;17.50;2.88;;;12.40;99.90;;;;;;5050017;28;20037;-57
2023/10/14 01:48:21;;;;;;;14.15;2.53;;;12.00;99.90;;;;;;5056753;28;20555;-57
2023/10/14 01:50:55;;;;;;;12.75;2.50;;;12.00;99.90;;;;;;5063036;28;20545;-58
2023/10/14 01:53:23;;;;;;;14.20;2.20;;;12.30;99.90;;;;;;5069043;28;20049;-57
2023/10/14 01:55:52;;;;;;;9.85;2.28;;;11.90;99.90;;;;;;5051998;28;20118;-57
2023/10/14 02:01:04;;;;;;;17.65;2.78;;;12.00;99.90;;;;;;5063476;28;20049;-57
2023/10/14 02:03:33;;;;;;;13.02;2.55;;;11.80;99.90;;;;;;5071599;28;20105;-57
2023/10/14 02:05:58;;;;;;;12.05;2.13;;;11.90;99.90;;;;;;5071021;28;20051;-56
2023/10/14 02:08:25;;;;;;;12.05;2.88;;;12.00;99.90;;;;;;5069896;28;20045;-57
2023/10/14 02:10:51;;;;;;;9.57;2.00;;;11.90;99.90;;;;;;5083479;28;20035;-57
2023/10/14 02:13:19;;;;;;;12.85;2.72;;;11.90;99.90;;;;;;5073541;28;20028;-56
2023/10/14 02:15:47;;;;;;;9.15;2.35;;;11.80;99.90;;;;;;5091378;28;20036;-57
2023/10/14 02:18:21;;;;;;;10.35;2.53;;;11.70;99.90;;;;;;5091893;28;20089;-56
2023/10/14 02:20:58;;;;;;;15.82;2.83;;;11.90;99.90;;;;;;5091529;28;20035;-57
2023/10/14 02:23:29;;;;;;;12.43;2.40;;;11.80;99.90;;;;;;5091739;28;20083;-55
2023/10/14 02:25:56;;;;;;;8.32;1.52;;;11.90;99.90;;;;;;5091592;28;20040;-57
2023/10/14 02:28:39;;;;;;;13.75;1.98;;;11.70;99.90;;;;;;5092006;28;20039;-58
2023/10/14 02:31:15;;;;;;;13.70;2.55;;;11.80;99.90;;;;;;5079066;28;20037;-58
2023/10/14 02:33:45;;;;;;;16.05;1.95;;;11.80;99.90;;;;;;5050906;28;20380;-57
2023/10/14 02:36:14;;;;;;;8.98;1.50;;;11.80;99.90;;;;;;5056229;28;20041;-57
2023/10/14 02:38:41;;;;;;;14.80;1.80;;;11.80;99.90;;;;;;5060112;28;20394;-57
2023/10/14 02:41:07;;;;;;;12.43;2.30;;;11.80;99.90;;;;;;5036305;28;20481;-57
2023/10/14 02:43:36;;;;;;;12.38;2.53;;;11.70;99.90;;;;;;5051204;28;20048;-58
2023/10/14 02:46:10;;;;;;;14.73;1.95;;;11.70;99.90;;;;;;5050674;28;20040;-56
2023/10/14 02:49:02;;;;;;;14.02;2.65;;;11.80;99.90;;;;;;5059272;28;20059;-57
2023/10/14 02:51:43;;;;;;;12.65;2.17;;;11.70;99.90;;;;;;5071069;28;20127;-57
2023/10/14 02:54:15;;;;;;;14.98;2.60;;;11.70;99.90;;;;;;5070292;28;20028;-56
2023/10/14 02:59:20;;;;;;;9.68;1.05;;;11.60;99.90;;;;;;5069983;28;20117;-56
2023/10/14 03:07:21;;;;;;;13.18;2.15;;;11.50;99.90;;;;;;5090901;28;20036;-57
2023/10/14 03:09:47;;;;;;;10.73;2.17;;;11.50;99.90;;;;;;5086042;28;20040;-58
2023/10/14 03:12:18;;;;;;;11.18;1.85;;;11.50;99.90;;;;;;5070579;28;20490;-58
2023/10/14 03:14:48;;;;;;;14.77;2.33;;;11.60;99.90;;;;;;5069976;28;20068;-57
2023/10/14 03:17:25;;;;;;;9.05;1.05;;;11.60;99.90;;;;;;5070745;28;20029;-57
2023/10/14 03:19:53;;;;;;;10.65;1.95;;;11.50;99.90;;;;;;5069727;28;20376;-57
2023/10/14 03:22:27;;;;;;;15.85;2.47;;;11.50;99.90;;;;;;5070612;28;20032;-58
2023/10/14 03:25:04;;;;;;;13.13;1.90;;;11.50;99.90;;;;;;5070650;28;20068;-57
2023/10/14 03:27:32;;;;;;;7.72;1.23;;;11.60;99.90;;;;;;5070693;28;20039;-57
2023/10/14 03:29:59;;;;;;;8.95;2.10;;;11.60;99.90;;;;;;5070411;28;20098;-57
2023/10/14 03:32:33;;;;;;;6.95;1.58;;;11.50;99.90;;;;;;5070757;28;20064;-57
2023/10/14 03:35:11;;;;;;;14.32;2.58;;;11.60;99.90;;;;;;5070489;28;20541;-57
2023/10/14 03:37:40;;;;;;;10.18;1.83;;;11.40;99.90;;;;;;5069313;28;20036;-57
2023/10/14 03:42:53;;;;;;;10.90;1.98;;;11.50;99.90;;;;;;5070747;28;20123;-57
2023/10/14 03:45:21;;;;;;;7.28;0.85;;;11.50;99.90;;;;;;5069755;28;20051;-57
2023/10/14 03:47:52;;;;;;;11.80;2.35;;;11.30;99.90;;;;;;5070577;28;20120;-56
2023/10/14 03:50:24;;;;;;;10.85;2.05;;;11.30;99.90;;;;;;5070305;28;20136;-58
2023/10/14 03:52:53;;;;;;;12.82;1.80;;;11.20;99.90;;;;;;5051983;28;20060;-57
2023/10/14 03:55:26;;;;;;;10.95;1.05;;;11.20;99.90;;;;;;5070452;28;20037;-56
2023/10/14 03:58:28;;;;;;;9.45;1.83;;;11.20;99.90;;;;;;5069629;28;20051;-57
2023/10/14 04:00:48;;;;;;;9.15;0.90;;;11.20;99.90;;;;;;5067550;28;20049;-57
2023/10/14 04:03:24;;;;;;;10.05;1.85;;;11.20;99.90;;;;;;5070088;28;20104;-57
2023/10/14 04:05:59;;;;;;;10.43;2.25;;;11.00;99.90;;;;;;5041615;28;20151;-56
2023/10/14 04:08:30;;;;;;;12.90;2.00;;;11.20;99.90;;;;;;5070017;28;20059;-57
2023/10/14 04:11:12;;;;;;;12.57;2.03;;;11.10;99.90;;;;;;5072441;28;20115;-58
2023/10/14 04:13:41;;;;;;;9.48;1.05;;;11.20;99.90;;;;;;5074053;28;20033;-57
2023/10/14 04:16:12;;;;;;;6.30;0.77;;;11.00;99.90;;;;;;5073040;28;20134;-57
2023/10/14 04:18:43;;;;;;;9.10;1.00;;;11.00;99.90;;;;;;5072802;28;20045;-56
2023/10/14 04:21:15;;;;;;;11.02;1.98;;;11.10;99.90;;;;;;5073673;28;20036;-57
2023/10/14 04:26:34;;;;;;;12.95;2.08;;;11.10;99.90;;;;;;5072873;28;20043;-57
2023/10/14 04:29:05;;;;;;;9.88;1.95;;;11.00;99.90;;;;;;5094147;28;20035;-57
2023/10/14 04:31:40;;;;;;;8.23;1.10;;;11.00;99.90;;;;;;5093820;28;20119;-57
2023/10/14 04:34:10;;;;;;;10.18;1.90;;;11.00;99.90;;;;;;5094116;28;20559;-57
2023/10/14 04:36:37;;;;;;;13.68;1.58;;;11.10;99.90;;;;;;5090101;28;20048;-58
2023/10/14 04:39:15;;;;;;;10.38;1.50;;;11.00;99.90;;;;;;5093640;28;20043;-57
2023/10/14 04:44:37;;;;;;;13.23;1.15;;;11.00;99.90;;;;;;5075815;28;20135;-56
2023/10/14 04:47:04;;;;;;;10.35;1.73;;;10.90;99.90;;;;;;5093448;28;20036;-57
2023/10/14 04:49:42;;;;;;;14.73;2.28;;;11.10;99.90;;;;;;5086918;28;20052;-57
2023/10/14 04:52:08;;;;;;;12.95;2.60;;;11.00;99.90;;;;;;5056951;28;20496;-56
2023/10/14 04:54:34;;;;;;;10.05;1.35;;;10.90;99.90;;;;;;5054633;28;20040;-58
2023/10/14 04:57:18;;;;;;;15.73;2.53;;;10.90;99.90;;;;;;5053600;28;20110;-57
2023/10/14 04:59:45;;;;;;;13.07;2.45;;;11.10;99.90;;;;;;5060035;28;20087;-57
2023/10/14 05:02:15;;;;;;;11.27;1.33;;;11.10;99.90;;;;;;5071775;28;21028;-58
2023/10/14 05:04:41;;;;;;;14.30;3.10;;;11.00;99.90;;;;;;5073103;28;20399;-56
2023/10/14 05:07:11;;;;;;;13.02;2.78;;;10.90;99.90;;;;;;5073368;28;20084;-58
2023/10/14 05:09:39;;;;;;;14.38;2.70;;;10.90;99.90;;;;;;5055683;28;20431;-57
2023/10/14 05:12:13;;;;;;;12.63;1.52;;;11.00;99.90;;;;;;5053032;28;20029;-57
2023/10/14 05:14:39;;;;;;;15.32;2.65;;;10.90;99.90;;;;;;5054793;28;20044;-58
2023/10/14 05:19:41;;;;;;;14.30;1.63;;;11.10;99.90;;;;;;5054183;28;20110;-58
2023/10/14 05:22:18;;;;;;;18.63;2.78;;;11.00;99.90;;;;;;5051941;28;20040;-57
2023/10/14 05:24:48;;;;;;;14.27;2.08;;;10.90;99.90;;;;;;5052613;28;20044;-57
2023/10/14 05:27:19;;;;;;;6.25;1.05;;;10.90;99.90;;;;;;5052981;28;20029;-57
2023/10/14 05:29:51;;;;;;;18.05;3.00;;;10.80;99.90;;;;;;5068293;28;20115;-57
2023/10/14 05:32:23;;;;;;;17.95;1.80;;;10.90;99.90;;;;;;5092853;28;20032;-58
2023/10/14 05:34:50;;;;;;;16.23;2.72;;;11.00;99.90;;;;;;5082259;28;20488;-56
2023/10/14 05:37:16;;;;;;;11.80;1.40;;;10.90;99.90;;;;;;5054015;28;20106;-57
2023/10/14 05:39:43;;;;;;;13.38;3.15;;;10.80;99.90;;;;;;5052698;28;20029;-56
2023/10/14 05:42:16;;;;;;;14.57;3.08;;;11.00;99.90;;;;;;5053250;28;20044;-56
2023/10/14 05:44:47;;;;;;;20.85;3.03;;;11.00;99.90;;;;;;5053257;28;20093;-56
2023/10/14 05:47:21;;;;;;;18.77;3.05;;;10.90;99.90;;;;;;5052088;28;20045;-56
2023/10/14 05:49:47;;;;;;;20.02;3.10;;;10.90;99.90;;;;;;5091913;28;20044;-57
2023/10/14 05:52:13;;;;;;;17.50;3.50;;;10.80;99.90;;;;;;5074152;28;20032;-57
2023/10/14 05:54:45;;;;;;;16.40;2.85;;;10.90;99.90;;;;;;5092135;28;20048;-57
2023/10/14 05:57:10;;;;;;;11.75;1.30;;;10.70;99.90;;;;;;5092502;28;20422;-57
2023/10/14 05:59:39;;;;;;;13.07;1.38;;;10.70;99.90;;;;;;5051979;28;20045;-56
2023/10/14 06:02:08;;;;;;;18.80;2.67;;;10.70;99.90;;;;;;5051964;28;20033;-56
2023/10/14 06:04:39;;;;;;;13.63;1.55;;;10.50;99.90;;;;;;5052002;28;20069;-56
2023/10/14 06:07:09;;;;;;;18.35;1.90;;;10.50;99.90;;;;;;5051602;28;20043;-56
2023/10/14 06:09:38;;;;;;;15.50;3.08;;;10.50;99.90;;;;;;5062181;28;20037;-55
2023/10/14 06:12:14;;;;;;;14.70;2.53;;;10.50;99.90;;;;;;5051516;28;20028;-56
2023/10/14 06:14:43;;;;;;;8.20;1.30;;;10.60;99.90;;;;;;5051657;28;20052;-56
2023/10/14 06:17:10;;;;;;;18.35;3.35;;;10.60;99.90;;;;;;5054565;28;20082;-57
2023/10/14 06:19:36;;;;;;;14.35;1.65;;;10.50;99.90;;;;;;5055510;28;20124;-55
2023/10/14 06:22:03;;;;;;;10.50;1.33;;;10.50;99.90;;;;;;5053518;28;20515;-56
2023/10/14 06:24:34;;;;;;;13.52;2.95;;;10.60;99.90;;;;;;5052156;28;20036;-57
2023/10/14 06:27:09;;;;;;;15.88;2.58;;;10.50;99.90;;;;;;5055637;28;20098;-56
2023/10/14 06:29:35;;;;;;;13.82;2.75;;;10.50;99.90;;;;;;5057615;28;20531;-57
2023/10/14 06:32:03;;;;;;;13.65;1.55;;;10.60;99.90;;;;;;5051588;28;20469;-57
2023/10/14 06:34:31;;;;;;;14.07;1.67;;;10.60;99.90;;;;;;5055938;28;20512;-57
2023/10/14 06:37:01;;;;;;;19.15;1.65;;;10.50;99.90;;;;;;5051572;28;20052;-58
2023/10/14 06:39:27;;;;;;;9.65;1.33;;;10.50;99.90;;;;;;5051364;28;20045;-58
2023/10/14 06:41:55;;;;;;;17.83;2.05;;;10.60;99.90;;;;;;5051252;28;20037;-57
2023/10/14 06:44:27;;;;;;;14.25;3.17;;;10.70;99.90;;;;;;5051393;28;20078;-58
2023/10/14 06:46:56;;;;;;;13.55;2.90;;;10.60;99.90;;;;;;5047467;28;20991;-57
2023/10/14 06:49:36;;;;;;;12.70;1.35;;;10.60;99.90;;;;;;5052995;28;20052;-58
2023/10/14 06:52:04;;;;;;;12.85;2.85;;;10.70;99.90;;;;;;5053164;28;20040;-57
2023/10/14 06:54:30;;;;;;;15.55;3.10;;;10.70;99.90;;;;;;5054106;28;20594;-57
2023/10/14 06:56:56;;;;;;;12.23;2.92;;;10.80;99.90;;;;;;5055405;28;20041;-58
2023/10/14 06:59:22;;;;;;;17.33;2.15;;;10.80;99.90;;;;;;5055391;28;20102;-57
2023/10/14 07:01:48;;;;;;;14.50;3.30;;;10.80;99.90;;;;;;5040296;28;20028;-58
2023/10/14 07:04:16;;;;;;;13.10;3.35;;;10.70;99.90;;;;;;5053980;28;20477;-56
2023/10/14 07:06:47;;;;;;;18.45;2.03;;;10.80;99.90;;;;;;5057559;28;20456;-58
2023/10/14 07:09:22;;;;;;;19.02;3.28;;;10.80;99.90;;;;;;5039747;28;20037;-58
2023/10/14 07:11:48;;;;;;;13.25;2.78;;;10.80;99.90;;;;;;5051055;28;20117;-57
2023/10/14 07:14:14;;;;;;;17.92;1.45;;;10.80;99.90;;;;;;5052547;28;20443;-58
2023/10/14 07:16:42;;;;;;;17.77;2.83;;;10.90;99.90;;;;;;5052123;28;20049;-57
2023/10/14 07:19:08;;;;;;;15.38;3.33;;;11.10;99.90;;;;;;5052350;28;20025;-58
2023/10/14 07:21:34;;;;;;;15.88;3.05;;;11.20;99.90;;;;;;5053974;28;20044;-58
2023/10/14 07:24:05;;;;;;;13.82;1.63;;;11.40;99.90;;;;;;5053225;28;20033;-58
2023/10/14 07:26:36;;;;;;;17.60;3.60;;;11.30;99.90;;;;;;5051704;28;20029;-57
2023/10/14 07:29:03;;;;;;;13.63;1.70;;;11.40;99.90;;;;;;5053535;28;20040;-57
2023/10/14 07:31:31;;;;;;;10.38;1.63;;;11.30;99.90;;;;;;5049296;28;20381;-58
2023/10/14 07:34:08;;;;;;;21.85;3.65;;;11.30;99.90;;;;;;5052330;28;20053;-57
2023/10/14 07:36:34;;;;;;;16.55;2.00;;;11.30;99.90;;;;;;5052051;28;20037;-58
2023/10/14 07:39:27;;;;;;;18.58;2.08;;;11.30;99.90;;;;;;5053019;28;20037;-57
2023/10/14 07:41:52;;;;;;;15.82;3.28;;;11.30;99.90;;;;;;5051626;28;20033;-58
2023/10/14 07:44:19;;;;;;;15.43;1.85;;;11.30;99.90;;;;;;5037908;28;20032;-58
2023/10/14 07:46:44;;;;;;;18.23;1.92;;;11.40;99.90;;;;;;5055249;28;20040;-58
2023/10/14 07:49:10;;;;;;;13.85;2.15;;;11.60;99.90;;;;;;5055880;28;20057;-57
2023/10/14 07:51:36;;;;;;;19.13;2.25;;;11.60;99.90;;;;;;5058040;28;20067;-58
2023/10/14 07:54:02;;;;;;;19.02;3.88;;;11.70;99.90;;;;;;5053919;28;20090;-58
2023/10/14 07:56:28;;;;;;;20.60;3.53;;;11.80;99.90;;;;;;5054927;28;20080;-57
2023/10/14 07:58:55;;;;;;;20.63;3.78;;;12.00;99.90;;;;;;5060195;28;20369;-57
2023/10/14 08:01:23;;;;;;;18.48;3.90;;;12.00;99.90;;;;;;5060768;28;20045;-57
2023/10/14 08:03:48;;;;;;;14.15;3.25;;;12.20;99.90;;;;;;5060642;28;20036;-57
2023/10/14 08:06:17;;;;;;;17.58;2.30;;;12.20;99.90;;;;;;5059322;28;20055;-58
2023/10/14 08:08:47;;;;;;;19.58;4.30;;;12.30;99.90;;;;;;5041913;28;20046;-58
2023/10/14 08:11:14;;;;;;;16.20;3.45;;;12.30;99.90;;;;;;5057584;28;20266;-58
2023/10/14 08:13:42;;;;;;;14.75;1.50;;;12.40;99.90;;;;;;5058173;28;20130;-59
2023/10/14 08:16:08;;;;;;;13.88;3.58;;;12.50;99.90;;;;;;5059294;28;20552;-58
2023/10/14 08:18:34;;;;;;;17.13;2.22;;;12.60;99.90;;;;;;5058704;28;20556;-58
2023/10/14 08:21:00;;;;;;;17.85;2.13;;;12.60;99.90;;;;;;5058527;28;20127;-57
2023/10/14 08:23:31;;;;;;;14.75;3.47;;;12.60;99.90;;;;;;5060008;28;20430;-57
2023/10/14 08:25:59;;;;;;;14.40;2.80;;;12.60;99.90;;;;;;5057681;28;20040;-57
2023/10/14 08:28:32;;;;;;;15.75;2.08;;;12.70;99.90;;;;;;5059317;28;20045;-57
2023/10/14 08:30:59;;;;;;;17.52;1.70;;;12.80;99.90;;;;;;5045796;28;20086;-58
2023/10/14 08:33:28;;;;;;;18.65;2.63;;;12.70;99.90;;;;;;5058559;28;20107;-59
2023/10/14 08:35:55;;;;;;;13.70;2.92;;;12.80;99.90;;;;;;5059708;28;20080;-58
2023/10/14 08:38:22;;;;;;;16.25;3.10;;;12.90;99.90;;;;;;5059129;28;20036;-58
2023/10/14 08:40:52;;;;;;;17.38;3.45;;;12.90;99.90;;;;;;5057527;28;20468;-59
2023/10/14 08:43:30;;;;;;;12.80;2.65;;;12.90;99.90;;;;;;5058043;28;20033;-57
2023/10/14 08:45:59;;;;;;;13.02;2.70;;;13.00;99.90;;;;;;5058776;28;20098;-59
2023/10/14 08:48:27;;;;;;;17.40;2.78;;;13.10;99.90;;;;;;5057571;28;20474;-57
2023/10/14 08:50:56;;;;;;;19.23;2.88;;;13.10;99.90;;;;;;5056840;28;20039;-58
2023/10/14 08:53:22;;;;;;;14.25;1.40;;;13.20;99.90;;;;;;5056994;28;20049;-56
2023/10/14 08:55:49;;;;;;;8.80;1.25;;;13.20;99.90;;;;;;5051177;28;20116;-57
2023/10/14 08:58:14;;;;;;;20.10;1.73;;;13.20;99.90;;;;;;5054892;28;20380;-56
2023/10/14 09:00:43;;;;;;;16.55;1.90;;;13.20;99.90;;;;;;5058454;28;20032;-56
2023/10/14 09:03:10;;;;;;;12.85;2.40;;;13.30;99.90;;;;;;5059281;28;20032;-57
2023/10/14 09:05:40;;;;;;;10.10;2.63;;;13.40;99.90;;;;;;5058695;28;20040;-57
2023/10/14 09:08:06;;;;;;;14.43;1.58;;;13.40;99.90;;;;;;5044070;28;20040;-57
2023/10/14 09:10:36;;;;;;;10.18;2.08;;;13.40;99.90;;;;;;5059286;28;20398;-57
2023/10/14 09:13:04;;;;;;;10.27;2.28;;;13.40;99.90;;;;;;5057842;28;20052;-56
2023/10/14 09:15:39;;;;;;;11.18;2.25;;;13.50;99.90;;;;;;5055604;28;20040;-56
2023/10/14 09:18:11;;;;;;;11.38;2.08;;;13.50;99.90;;;;;;5057209;28;20039;-58
2023/10/14 09:20:39;;;;;;;10.00;1.10;;;13.60;99.90;;;;;;5058553;28;20029;-57
2023/10/14 09:23:17;;;;;;;13.50;1.80;;;13.70;99.90;;;;;;5056311;28;20060;-56
2023/10/14 09:25:52;;;;;;;13.55;1.75;;;13.70;99.90;;;;;;5056952;28;20067;-56
2023/10/14 09:28:23;;;;;;;14.25;2.15;;;13.80;99.90;;;;;;5058974;28;20061;-57
2023/10/14 09:30:56;;;;;;;7.88;1.30;;;13.90;99.90;;;;;;5058818;28;20043;-57
2023/10/14 09:33:31;;;;;;;11.60;2.30;;;13.90;99.90;;;;;;5043424;28;20049;-56
2023/10/14 09:36:06;;;;;;;10.13;1.33;;;14.00;99.90;;;;;;5054722;28;20080;-56
2023/10/14 09:38:32;;;;;;;13.18;1.83;;;14.00;99.90;;;;;;5049476;28;20029;-56
2023/10/14 09:41:03;;;;;;;12.63;2.70;;;14.20;99.90;;;;;;5059855;28;20033;-60
2023/10/14 09:43:30;;;;;;;10.77;2.28;;;14.30;99.90;;;;;;5059811;28;20044;-56
2023/10/14 09:45:57;;;;;;;10.40;1.88;;;14.40;99.90;;;;;;5056817;28;20330;-56
2023/10/14 09:48:25;;;;;;;14.02;2.50;;;14.50;99.90;;;;;;5058064;28;20064;-57
2023/10/14 09:50:54;;;;;;;10.60;2.42;;;14.50;99.90;;;;;;5060358;28;20094;-58
2023/10/14 09:53:26;;;;;;;13.00;2.17;;;14.50;99.90;;;;;;5058867;28;20041;-56
2023/10/14 09:56:04;;;;;;;13.23;2.13;;;14.60;99.90;;;;;;5038877;28;20048;-55
2023/10/14 09:58:35;;;;;;;13.25;2.42;;;14.60;99.90;;;;;;5060113;28;20047;-56
2023/10/14 10:01:03;;;;;;;7.95;1.17;;;14.60;99.90;;;;;;5059799;28;20115;-56
2023/10/14 10:03:44;;;;;;;9.48;1.33;;;14.60;99.90;;;;;;5058630;28;20040;-56
2023/10/14 10:06:21;;;;;;;8.15;1.58;;;14.30;99.90;;;;;;5059824;28;20497;-55
2023/10/14 10:09:17;;;;;;;8.80;1.52;;;13.90;99.90;;;;;;5057517;28;20095;-55
2023/10/14 10:11:46;;;;;;;8.07;0.95;;;13.60;99.90;;;;;;5059438;28;20586;-56
2023/10/14 10:14:16;;;;;;;10.60;1.45;;;13.60;99.90;;;;;;5058576;28;20068;-55
2023/10/14 10:16:42;;;;;;;9.50;1.40;;;13.70;99.90;;;;;;5059152;28;20037;-56
2023/10/14 10:19:10;;;;;;;14.32;1.70;;;13.90;99.90;;;;;;5059198;28;20090;-55
2023/10/14 10:21:43;;;;;;;14.43;1.75;;;14.20;99.90;;;;;;5059251;28;20384;-56
2023/10/14 10:24:38;;;;;;;10.90;1.58;;;14.50;99.90;;;;;;5058623;28;20429;-56
2023/10/14 10:27:03;;;;;;;10.20;2.30;;;14.70;99.90;;;;;;5059645;28;20483;-55
2023/10/14 10:29:55;;;;;;;8.77;1.48;;;14.90;99.90;;;;;;5059032;28;20117;-56
2023/10/14 10:32:30;;;;;;;10.93;2.08;;;15.00;99.90;;;;;;5056912;28;20506;-55
2023/10/14 10:35:05;;;;;;;9.00;1.80;;;15.10;99.90;;;;;;5043539;28;20675;-55
2023/10/14 10:37:40;;;;;;;6.88;1.30;;;15.10;99.90;;;;;;5058421;28;20047;-56
2023/10/14 10:40:10;;;;;;;8.60;1.23;;;15.00;99.90;;;;;;5059265;28;20486;-58
2023/10/14 10:42:41;;;;;;;8.65;1.63;;;14.80;99.90;;;;;;5042425;28;20469;-57
2023/10/14 10:45:31;;;;;;;7.38;1.30;;;14.80;99.90;;;;;;5059724;28;20043;-58
2023/10/14 10:48:05;;;;;;;10.23;2.08;;;14.90;99.90;;;;;;5058974;28;20036;-57
2023/10/14 10:50:36;;;;;;;9.50;1.73;;;15.00;99.90;;;;;;5056522;28;20144;-57
2023/10/14 10:53:11;;;;;;;7.57;1.50;;;15.10;99.90;;;;;;5055157;28;20032;-58
2023/10/14 10:55:41;;;;;;;8.65;1.83;;;15.10;99.90;;;;;;5054392;28;20048;-58
2023/10/14 10:58:11;;;;;;;8.45;1.60;;;15.10;99.90;;;;;;5056372;28;20469;-59
2023/10/14 11:00:40;;;;;;;7.50;1.73;;;15.10;99.90;;;;;;5038680;28;20036;-59
2023/10/14 11:03:06;;;;;;;7.90;1.33;;;15.10;99.90;;;;;;5057577;28;20045;-58
2023/10/14 11:05:33;;;;;;;8.13;1.40;;;15.00;99.90;;;;;;5052344;28;20408;-58
2023/10/14 11:08:01;;;;;;;9.45;1.73;;;14.80;99.90;;;;;;5053313;28;20037;-58
2023/10/14 11:10:28;;;;;;;9.43;1.50;;;14.80;99.90;;;;;;5055207;28;20539;-58
2023/10/14 11:12:55;;;;;;;7.28;1.65;;;14.70;99.90;;;;;;5057438;28;20048;-59
2023/10/14 11:15:22;;;;;;;7.78;1.75;;;14.60;99.90;;;;;;5053590;28;20519;-57
2023/10/14 11:17:52;;;;;;;10.90;1.60;;;14.30;99.90;;;;;;5036968;28;20037;-56
2023/10/14 11:20:19;;;;;;;7.05;1.05;;;14.10;99.90;;;;;;5052270;28;20045;-59
2023/10/14 11:22:45;;;;;;;10.82;2.10;;;14.10;99.90;;;;;;5052582;28;20036;-58
2023/10/14 11:25:13;;;;;;;10.40;1.92;;;14.30;99.90;;;;;;5041212;28;20037;-57
2023/10/14 11:27:41;;;;;;;11.38;1.40;;;14.80;99.90;;;;;;5056634;28;20033;-57
2023/10/14 11:30:11;;;;;;;14.73;2.60;;;15.10;99.90;;;;;;5056629;28;20534;-59
2023/10/14 11:32:43;;;;;;;9.00;1.52;;;14.40;99.90;;;;;;5067304;28;20032;-57
2023/10/14 11:35:10;;;;;;;10.50;2.05;;;13.10;99.90;;;;;;5081493;28;20036;-57
2023/10/14 11:37:36;;;;;;;8.15;1.65;;;12.30;99.90;;;;;;5050040;28;20510;-57
2023/10/14 11:40:15;;;;;;;11.27;1.95;;;11.90;99.90;;;;;;5046531;28;20045;-57
2023/10/14 11:42:41;;;;;;;11.43;1.85;;;11.90;99.90;;;;;;5049377;28;20060;-56
2023/10/14 11:45:07;;;;;;;10.80;2.03;;;12.20;99.90;;;;;;5052085;28;20029;-57
2023/10/14 11:47:37;;;;;;;7.82;1.65;;;12.60;99.90;;;;;;5045190;28;20031;-57
2023/10/14 11:50:12;;;;;;;10.25;1.70;;;12.70;99.90;;;;;;5054265;28;20587;-56
2023/10/14 11:52:42;;;;;;;12.43;2.30;;;12.80;99.90;;;;;;5051363;28;20160;-57
2023/10/14 11:55:14;;;;;;;8.73;1.70;;;12.30;99.90;;;;;;5054288;28;20131;-57
2023/10/14 11:57:44;;;;;;;9.43;1.70;;;12.00;99.90;;;;;;5050505;28;20496;-57
2023/10/14 12:00:12;;;;;;;11.90;2.40;;;11.90;99.90;;;;;;5052786;28;20029;-57
2023/10/14 12:02:40;;;;;;;11.98;2.83;;;11.80;99.90;;;;;;5051011;28;20384;-57
2023/10/14 12:05:07;;;;;;;11.45;2.15;;;11.90;99.90;;;;;;5051219;28;20078;-57
2023/10/14 12:07:33;;;;;;;9.05;1.85;;;12.00;99.90;;;;;;5054518;28;20076;-58
2023/10/14 12:10:00;;;;;;;13.38;2.22;;;11.90;99.90;;;;;;5050927;28;20056;-57
2023/10/14 12:12:26;;;;;;;11.77;1.00;;;11.90;99.90;;;;;;5038441;28;20139;-57
2023/10/14 12:14:52;;;;;;;11.68;1.88;;;12.00;99.90;;;;;;5055078;28;20072;-57
2023/10/14 12:17:18;;;;;;;10.55;1.15;;;12.40;99.90;;;;;;5050352;28;20944;-57
2023/10/14 12:19:44;;;;;;;10.27;1.77;;;12.80;99.90;;;;;;5052134;28;20058;-57
2023/10/14 12:22:10;;;;;;;9.57;1.88;;;13.20;99.90;;;;;;5052224;28;20037;-57
2023/10/14 12:24:36;;;;;;;10.68;1.23;;;13.40;99.90;;;;;;5051148;28;20041;-57
2023/10/14 12:27:02;;;;;;;6.47;0.95;;;13.60;99.90;;;;;;5035909;28;20123;-57
2023/10/14 12:29:32;;;;;;;6.15;0.82;;;13.80;99.90;;;;;;5048943;28;20080;-57
2023/10/14 12:31:59;;;;;;;7.40;0.98;;;14.00;99.90;;;;;;5056635;28;20032;-57
2023/10/14 12:34:25;;;;;;;6.88;1.30;;;14.10;99.90;;;;;;5054841;28;20501;-58
2023/10/14 12:36:52;;;;;;;8.63;0.90;;;14.30;99.90;;;;;;5054181;28;20541;-57
2023/10/14 12:39:19;;;;;;;9.05;1.00;;;14.40;99.90;;;;;;5039400;28;20036;-57
2023/10/14 12:41:47;;;;;;;9.82;1.27;;;14.60;99.90;;;;;;5053684;28;20067;-57
2023/10/14 12:44:14;;;;;;;7.50;1.40;;;14.80;99.90;;;;;;5054905;28;20032;-55
2023/10/14 12:46:40;;;;;;;6.32;1.35;;;15.00;99.90;;;;;;5054606;28;20029;-56
2023/10/14 12:49:10;;;;;;;8.18;1.05;;;15.10;99.90;;;;;;5055989;28;20045;-57
2023/10/14 12:51:42;;;;;;;10.65;1.52;;;15.20;99.90;;;;;;5056192;28;20072;-56
2023/10/14 12:54:17;;;;;;;9.93;2.00;;;15.30;99.90;;;;;;5054584;28;20051;-55
2023/10/14 12:56:44;;;;;;;9.18;1.80;;;15.30;99.90;;;;;;5053804;28;20523;-56
2023/10/14 12:59:13;;;;;;;10.30;1.90;;;15.20;99.90;;;;;;5056919;28;20052;-57
2023/10/14 13:01:46;;;;;;;10.45;1.75;;;15.00;99.90;;;;;;5052954;28;20099;-59
2023/10/14 13:04:16;;;;;;;10.68;2.92;;;14.20;99.90;;;;;;5057700;28;20178;-57
2023/10/14 13:06:44;;;;;;;12.25;2.17;;;13.50;99.90;;;;;;5055030;28;20052;-58
2023/10/14 13:09:12;;;;;;;8.85;2.40;;;13.10;99.90;;;;;;5055310;28;20040;-57
2023/10/14 13:11:44;;;;;;;14.82;1.75;;;12.90;99.90;;;;;;5053430;28;20102;-53
2023/10/14 13:14:13;;;;;;;10.70;1.52;;;12.80;99.90;;;;;;5053736;28;20528;-53
2023/10/14 13:16:39;;;;;;;13.07;2.65;;;13.10;99.90;;;;;;5056579;28;20041;-57
2023/10/14 13:19:06;;;;;;;8.73;2.08;;;13.30;99.90;;;;;;5052815;28;20067;-56
2023/10/14 13:21:32;;;;;;;10.15;2.22;;;13.30;99.90;;;;;;5055232;28;20460;-58